Time;durP1;ratioP1;P1;durP2;ratioP2;P2;SDS_P1;SDS_P2;PMS_P1;PMS_P2;Temp;Humidity;BMP_temperature;BMP_pressure;BME280_temperature;BME280_humidity;BME280_pressure;Samples;Min_cycle;Max_cycle;Signal;HPM_P1;HPM_P2
2022/12/06 00:00:41;;;;;;;0.52;0.52;;;;;;;;;;5065447;28;20044;-59
2022/12/06 00:03:07;;;;;;;0.60;0.60;;;;;;;;;;5098508;27;20087;-61
2022/12/06 00:05:33;;;;;;;0.40;0.35;;;;;;;;;;5066314;28;20094;-60
2022/12/06 00:07:59;;;;;;;0.30;0.30;;;;;;;;;;5064643;28;20120;-60
2022/12/06 00:10:25;;;;;;;0.90;0.55;;;;;;;;;;5065677;28;20858;-60
2022/12/06 00:12:51;;;;;;;0.52;0.40;;;;;;;;;;5066187;28;20044;-60
2022/12/06 00:15:18;;;;;;;0.43;0.43;;;;;;;;;;5064472;28;20415;-60
2022/12/06 00:17:44;;;;;;;0.90;0.60;;;;;;;;;;5066342;28;20043;-59
2022/12/06 00:20:10;;;;;;;2.28;0.60;;;;;;;;;;5066054;28;20536;-59
2022/12/06 00:22:36;;;;;;;1.92;0.90;;;;;;;;;;5065167;28;20043;-61
2022/12/06 00:25:02;;;;;;;3.00;1.10;;;;;;;;;;5068292;28;20051;-60
2022/12/06 00:27:28;;;;;;;0.93;0.57;;;;;;;;;;5066183;28;20064;-59
2022/12/06 00:29:54;;;;;;;1.00;0.60;;;;;;;;;;5065831;28;20045;-60
2022/12/06 00:32:20;;;;;;;0.77;0.63;;;;;;;;;;5065111;28;20053;-60
2022/12/06 00:34:46;;;;;;;0.40;0.40;;;;;;;;;;5066041;28;20415;-60
2022/12/06 00:37:12;;;;;;;0.75;0.50;;;;;;;;;;5064864;28;20123;-59
2022/12/06 00:39:38;;;;;;;0.70;0.70;;;;;;;;;;5065683;28;20620;-60
2022/12/06 00:42:04;;;;;;;1.02;0.50;;;;;;;;;;5064707;28;20097;-60
2022/12/06 00:44:30;;;;;;;2.20;0.70;;;;;;;;;;5065232;28;20109;-60
2022/12/06 00:46:56;;;;;;;0.63;0.55;;;;;;;;;;5064736;28;20407;-60
2022/12/06 00:49:22;;;;;;;2.28;0.90;;;;;;;;;;5064874;28;20048;-60
2022/12/06 00:51:49;;;;;;;3.40;1.45;;;;;;;;;;5064969;28;20040;-60
2022/12/06 00:54:15;;;;;;;3.70;1.73;;;;;;;;;;5065140;28;20123;-61
2022/12/06 00:56:41;;;;;;;4.07;0.95;;;;;;;;;;5066494;28;20057;-60
2022/12/06 00:59:07;;;;;;;2.20;1.17;;;;;;;;;;5065691;28;20055;-60
2022/12/06 01:01:34;;;;;;;0.77;0.60;;;;;;;;;;5064199;28;20055;-60
2022/12/06 01:04:02;;;;;;;0.90;0.70;;;;;;;;;;5064058;28;20064;-60
2022/12/06 01:06:30;;;;;;;1.88;0.70;;;;;;;;;;5064536;28;20050;-60
2022/12/06 01:08:57;;;;;;;2.00;0.88;;;;;;;;;;5065764;28;20555;-59
2022/12/06 01:11:24;;;;;;;1.13;0.60;;;;;;;;;;5063524;28;20490;-60
2022/12/06 01:13:51;;;;;;;0.95;0.50;;;;;;;;;;5065572;28;20052;-60
2022/12/06 01:16:18;;;;;;;0.40;0.30;;;;;;;;;;5064769;28;20051;-60
2022/12/06 01:18:44;;;;;;;0.52;0.40;;;;;;;;;;5064539;28;20471;-60
2022/12/06 01:21:12;;;;;;;0.38;0.28;;;;;;;;;;5064976;28;20061;-60
2022/12/06 01:23:38;;;;;;;1.23;0.75;;;;;;;;;;5065140;28;20052;-60
2022/12/06 01:26:05;;;;;;;0.85;0.20;;;;;;;;;;5061557;28;20036;-60
2022/12/06 01:28:31;;;;;;;0.20;0.20;;;;;;;;;;5064350;28;20040;-60
2022/12/06 01:30:57;;;;;;;0.15;0.10;;;;;;;;;;5064928;28;20045;-60
2022/12/06 01:33:23;;;;;;;0.20;0.10;;;;;;;;;;5062994;28;20054;-60
2022/12/06 01:35:49;;;;;;;0.10;0.10;;;;;;;;;;5065209;28;20032;-60
2022/12/06 01:38:15;;;;;;;0.32;0.13;;;;;;;;;;5064204;28;20044;-60
2022/12/06 01:40:43;;;;;;;0.17;0.13;;;;;;;;;;5064581;28;20119;-60
2022/12/06 01:43:29;;;;;;;0.10;0.10;;;;;;;;;;5064037;28;20044;-60
2022/12/06 01:45:56;;;;;;;0.10;0.10;;;;;;;;;;5064971;28;20044;-59
2022/12/06 01:48:24;;;;;;;0.30;0.10;;;;;;;;;;5063335;28;20040;-59
2022/12/06 01:50:50;;;;;;;0.10;0.10;;;;;;;;;;5064946;28;20127;-60
2022/12/06 01:53:18;;;;;;;0.10;0.10;;;;;;;;;;5063486;28;20094;-60
2022/12/06 01:55:45;;;;;;;0.20;0.10;;;;;;;;;;5064283;28;20063;-60
2022/12/06 01:58:16;;;;;;;0.00;0.00;;;;;;;;;;5064376;28;20094;-60
2022/12/06 02:00:42;;;;;;;0.10;0.10;;;;;;;;;;5064474;28;20394;-60
2022/12/06 02:03:12;;;;;;;0.25;0.13;;;;;;;;;;5064853;28;20045;-60
2022/12/06 02:05:38;;;;;;;0.00;0.00;;;;;;;;;;5064682;28;20521;-60
2022/12/06 02:08:04;;;;;;;0.00;0.00;;;;;;;;;;5064152;28;20048;-60
2022/12/06 02:10:30;;;;;;;0.10;0.10;;;;;;;;;;5064140;28;20049;-60
2022/12/06 02:12:57;;;;;;;0.13;0.13;;;;;;;;;;5064107;28;20056;-59
2022/12/06 02:15:35;;;;;;;0.10;0.10;;;;;;;;;;5062806;28;20154;-60
2022/12/06 02:18:08;;;;;;;0.10;0.10;;;;;;;;;;5063931;28;20387;-60
2022/12/06 02:20:36;;;;;;;0.20;0.20;;;;;;;;;;5064134;28;20101;-60
2022/12/06 02:23:12;;;;;;;0.00;0.00;;;;;;;;;;5064061;28;20602;-60
2022/12/06 02:25:55;;;;;;;0.10;0.10;;;;;;;;;;5064273;28;20041;-60
2022/12/06 02:28:39;;;;;;;0.10;0.10;;;;;;;;;;5062636;28;20072;-60
2022/12/06 02:31:05;;;;;;;0.13;0.13;;;;;;;;;;5064007;28;20051;-59
2022/12/06 02:33:39;;;;;;;0.13;0.13;;;;;;;;;;5063467;28;20045;-60
2022/12/06 02:36:11;;;;;;;0.13;0.13;;;;;;;;;;5063929;28;20045;-60
2022/12/06 02:38:48;;;;;;;0.32;0.20;;;;;;;;;;5063846;28;20287;-60
2022/12/06 02:41:26;;;;;;;0.10;0.10;;;;;;;;;;5061606;28;20105;-60
2022/12/06 02:43:57;;;;;;;0.20;0.20;;;;;;;;;;5063007;28;20080;-60
2022/12/06 02:46:28;;;;;;;0.30;0.20;;;;;;;;;;5062140;28;20338;-60
2022/12/06 02:48:56;;;;;;;0.30;0.20;;;;;;;;;;5062506;28;20040;-60
2022/12/06 02:51:22;;;;;;;0.20;0.20;;;;;;;;;;5062490;28;20132;-60
2022/12/06 02:53:50;;;;;;;0.20;0.20;;;;;;;;;;5064135;28;20049;-59
2022/12/06 02:56:16;;;;;;;0.10;0.10;;;;;;;;;;5063168;28;20041;-60
2022/12/06 02:58:42;;;;;;;0.10;0.10;;;;;;;;;;5063156;28;20040;-60
2022/12/06 03:01:16;;;;;;;0.30;0.30;;;;;;;;;;5063214;28;20043;-60
2022/12/06 03:03:49;;;;;;;0.10;0.10;;;;;;;;;;5063560;28;20403;-59
2022/12/06 03:06:35;;;;;;;0.20;0.20;;;;;;;;;;5063253;28;20037;-60
2022/12/06 03:09:04;;;;;;;0.30;0.20;;;;;;;;;;5063897;28;20090;-60
2022/12/06 03:11:36;;;;;;;0.20;0.20;;;;;;;;;;5062448;28;20045;-59
2022/12/06 03:14:07;;;;;;;0.10;0.10;;;;;;;;;;5064093;28;20078;-60
2022/12/06 03:16:47;;;;;;;0.20;0.20;;;;;;;;;;5063126;28;20059;-60
2022/12/06 03:19:19;;;;;;;1.35;0.30;;;;;;;;;;5062597;28;20095;-60
2022/12/06 03:21:45;;;;;;;;;;;;;;;;;;5064168;28;20040;-60
2022/12/06 03:24:13;;;;;;;0.28;0.10;;;;;;;;;;5064165;28;19920;-59
2022/12/06 03:26:39;;;;;;;0.22;0.22;;;;;;;;;;5063541;28;20033;-59
2022/12/06 03:29:06;;;;;;;0.22;0.10;;;;;;;;;;5066230;28;20040;-59
2022/12/06 03:31:34;;;;;;;0.10;0.08;;;;;;;;;;5066658;28;20160;-59
2022/12/06 03:34:04;;;;;;;0.10;0.10;;;;;;;;;;5067376;28;20613;-59
2022/12/06 03:36:30;;;;;;;0.10;0.10;;;;;;;;;;5066915;28;20052;-59
2022/12/06 03:39:01;;;;;;;0.10;0.10;;;;;;;;;;5066785;28;20045;-59
2022/12/06 03:41:32;;;;;;;0.13;0.13;;;;;;;;;;5066519;28;20086;-59
2022/12/06 03:43:58;;;;;;;0.10;0.10;;;;;;;;;;5065711;28;20049;-59
2022/12/06 03:46:27;;;;;;;0.20;0.13;;;;;;;;;;5065812;28;20070;-59
2022/12/06 03:49:01;;;;;;;0.10;0.10;;;;;;;;;;5067100;28;20056;-59
2022/12/06 03:51:29;;;;;;;0.32;0.10;;;;;;;;;;5066465;28;20052;-60
2022/12/06 03:54:00;;;;;;;0.25;0.10;;;;;;;;;;5066838;28;20114;-62
2022/12/06 03:56:26;;;;;;;0.00;0.00;;;;;;;;;;5099490;27;20608;-59
2022/12/06 03:58:52;;;;;;;0.10;0.10;;;;;;;;;;5066455;28;20032;-60
2022/12/06 04:01:18;;;;;;;0.15;0.15;;;;;;;;;;5065940;28;20051;-61
2022/12/06 04:03:44;;;;;;;0.20;0.20;;;;;;;;;;5066486;28;20199;-60
2022/12/06 04:06:11;;;;;;;0.28;0.20;;;;;;;;;;5067028;28;20071;-60
2022/12/06 04:08:37;;;;;;;0.10;0.10;;;;;;;;;;5066431;28;20055;-60
2022/12/06 04:11:04;;;;;;;0.10;0.10;;;;;;;;;;5066991;28;20040;-60
2022/12/06 04:13:30;;;;;;;0.10;0.10;;;;;;;;;;5065945;28;20049;-60
2022/12/06 04:15:57;;;;;;;0.28;0.20;;;;;;;;;;5065985;28;20154;-60
2022/12/06 04:18:23;;;;;;;0.00;0.00;;;;;;;;;;5066210;28;20132;-60
2022/12/06 04:23:56;;;;;;;0.17;0.17;;;;;;;;;;4984579;28;20054;-58
2022/12/06 04:26:23;;;;;;;0.05;0.05;;;;;;;;;;5048612;28;20055;-59
2022/12/06 04:39:50;;;;;;;0.22;0.15;;;;;;;;;;5065659;28;20049;-60
2022/12/06 04:45:01;;;;;;;0.30;0.30;;;;;;;;;;5064360;28;20455;-60
2022/12/06 04:47:28;;;;;;;0.30;0.20;;;;;;;;;;5063501;28;20086;-60
2022/12/06 04:49:54;;;;;;;1.35;0.30;;;;;;;;;;5065380;28;20051;-60
2022/12/06 04:52:20;;;;;;;0.30;0.30;;;;;;;;;;5065274;28;20563;-60
2022/12/06 04:54:46;;;;;;;0.32;0.20;;;;;;;;;;5065847;28;20123;-60
2022/12/06 04:57:13;;;;;;;1.65;0.30;;;;;;;;;;5065238;28;20121;-60
2022/12/06 04:59:40;;;;;;;0.17;0.17;;;;;;;;;;5065745;28;20902;-59
2022/12/06 05:02:07;;;;;;;2.00;0.85;;;;;;;;;;5065946;28;20407;-58
2022/12/06 05:04:33;;;;;;;0.38;0.30;;;;;;;;;;5064715;28;20052;-59
2022/12/06 05:06:59;;;;;;;0.20;0.20;;;;;;;;;;5065580;28;20036;-59
2022/12/06 05:09:25;;;;;;;0.30;0.25;;;;;;;;;;5065090;28;20037;-59
2022/12/06 05:11:51;;;;;;;0.32;0.30;;;;;;;;;;5064592;28;20185;-59
2022/12/06 05:14:17;;;;;;;0.40;0.30;;;;;;;;;;5065363;28;20044;-59
2022/12/06 05:16:43;;;;;;;0.30;0.30;;;;;;;;;;5065321;28;20047;-59
2022/12/06 05:19:09;;;;;;;0.17;0.17;;;;;;;;;;5064644;28;20487;-59
2022/12/06 05:21:35;;;;;;;0.40;0.20;;;;;;;;;;5065120;28;20419;-59
2022/12/06 05:24:01;;;;;;;0.40;0.40;;;;;;;;;;5065421;28;20062;-59
2022/12/06 05:26:28;;;;;;;0.20;0.20;;;;;;;;;;5063788;28;20056;-59
2022/12/06 05:28:54;;;;;;;0.38;0.38;;;;;;;;;;5064911;28;20760;-59
2022/12/06 05:31:20;;;;;;;0.40;0.40;;;;;;;;;;5064028;28;20045;-59
2022/12/06 05:33:46;;;;;;;0.52;0.47;;;;;;;;;;5064495;28;20040;-59
2022/12/06 05:36:14;;;;;;;0.50;0.40;;;;;;;;;;5065182;28;20093;-59
2022/12/06 05:38:41;;;;;;;0.30;0.22;;;;;;;;;;5064393;28;20074;-59
2022/12/06 05:41:07;;;;;;;0.50;0.30;;;;;;;;;;5097560;28;20127;-59
2022/12/06 05:43:33;;;;;;;0.43;0.40;;;;;;;;;;5066402;28;20126;-59
2022/12/06 05:45:59;;;;;;;;;;;;;;;;;;5064229;28;20463;-59
2022/12/06 05:48:25;;;;;;;;;;;;;;;;;;5065149;28;20074;-59
2022/12/06 05:50:52;;;;;;;0.30;0.30;;;;;;;;;;5065455;28;19920;-59
2022/12/06 05:53:19;;;;;;;0.30;0.30;;;;;;;;;;5095879;28;20057;-59
2022/12/06 05:55:44;;;;;;;;;;;;;;;;;;5064907;28;20044;-59
2022/12/06 05:58:10;;;;;;;;;;;;;;;;;;5065283;28;19920;-59
2022/12/06 06:00:36;;;;;;;;;;;;;;;;;;5065398;28;19946;-59
2022/12/06 06:03:02;;;;;;;;;;;;;;;;;;5068098;28;20437;-59
2022/12/06 06:05:29;;;;;;;;;;;;;;;;;;5066694;28;20553;-59
2022/12/06 06:07:55;;;;;;;;;;;;;;;;;;5064255;28;19931;-59
2022/12/06 06:10:21;;;;;;;;;;;;;;;;;;5064934;28;19982;-59
2022/12/06 06:12:47;;;;;;;;;;;;;;;;;;5069777;28;20409;-59
2022/12/06 06:15:13;;;;;;;;;;;;;;;;;;5064011;28;19924;-59
2022/12/06 06:17:39;;;;;;;;;;;;;;;;;;5065368;28;19921;-59
2022/12/06 06:20:05;;;;;;;;;;;;;;;;;;5065865;28;20402;-59
2022/12/06 06:22:31;;;;;;;;;;;;;;;;;;5063675;28;19989;-59
2022/12/06 06:24:57;;;;;;;;;;;;;;;;;;5065084;28;20363;-59
2022/12/06 06:27:23;;;;;;;;;;;;;;;;;;5064561;28;19960;-60
2022/12/06 06:29:49;;;;;;;;;;;;;;;;;;5063395;28;19964;-59
2022/12/06 06:32:15;;;;;;;;;;;;;;;;;;5064099;28;20388;-59
2022/12/06 06:34:41;;;;;;;;;;;;;;;;;;5064141;28;19927;-60
2022/12/06 06:37:06;;;;;;;;;;;;;;;;;;5065057;28;19924;-59
2022/12/06 06:39:32;;;;;;;;;;;;;;;;;;5064156;28;20540;-59
2022/12/06 06:41:58;;;;;;;;;;;;;;;;;;5063862;28;20377;-59
2022/12/06 06:44:24;;;;;;;;;;;;;;;;;;5064627;28;19925;-59
2022/12/06 06:46:50;;;;;;;0.30;0.30;;;;;;;;;;5062959;28;19926;-59
2022/12/06 06:49:17;;;;;;;0.68;0.40;;;;;;;;;;5063384;28;20467;-59
2022/12/06 06:51:43;;;;;;;0.30;0.20;;;;;;;;;;5063922;28;20499;-59
2022/12/06 06:54:10;;;;;;;0.55;0.30;;;;;;;;;;5064070;28;20055;-59
2022/12/06 06:56:36;;;;;;;0.43;0.38;;;;;;;;;;5058136;28;20487;-59
2022/12/06 06:59:02;;;;;;;0.50;0.50;;;;;;;;;;5064185;28;20047;-59
2022/12/06 07:01:28;;;;;;;0.50;0.50;;;;;;;;;;5066037;28;20146;-59
2022/12/06 07:03:55;;;;;;;0.40;0.40;;;;;;;;;;5069626;28;20617;-59
2022/12/06 07:06:21;;;;;;;0.80;0.60;;;;;;;;;;5069085;28;20044;-59
2022/12/06 07:08:47;;;;;;;0.57;0.32;;;;;;;;;;5069363;28;20499;-59
2022/12/06 07:11:14;;;;;;;0.50;0.50;;;;;;;;;;5066821;28;20101;-59
2022/12/06 07:13:41;;;;;;;1.17;0.40;;;;;;;;;;5068933;28;20118;-59
2022/12/06 07:16:07;;;;;;;0.50;0.43;;;;;;;;;;5067273;28;20502;-59
2022/12/06 07:18:34;;;;;;;0.60;0.60;;;;;;;;;;5067432;28;20093;-59
2022/12/06 07:21:02;;;;;;;0.50;0.50;;;;;;;;;;5068949;28;20055;-54
2022/12/06 07:23:28;;;;;;;;;;;;;;;;;;5070098;28;20660;-54
2022/12/06 07:25:54;;;;;;;;;;;;;;;;;;5068817;28;19973;-60
2022/12/06 07:28:20;;;;;;;;;;;;;;;;;;5067632;28;19920;-55
2022/12/06 07:30:46;;;;;;;;;;;;;;;;;;5068413;28;19951;-68
2022/12/06 07:33:12;;;;;;;;;;;;;;;;;;5069299;28;19928;-68
2022/12/06 07:35:38;;;;;;;0.70;0.70;;;;;;;;;;5071756;28;20313;-68
2022/12/06 07:38:04;;;;;;;1.00;0.50;;;;;;;;;;5068225;28;20358;-67
2022/12/06 07:40:30;;;;;;;1.30;0.82;;;;;;;;;;5070323;28;20127;-68
2022/12/06 07:45:40;;;;;;;;;;;;;;;;;;5067877;28;20467;-68
2022/12/06 07:48:06;;;;;;;;;;;;;;;;;;5070326;28;19932;-68
2022/12/06 07:50:32;;;;;;;;;;;;;;;;;;5069013;28;19928;-67
2022/12/06 07:52:58;;;;;;;;;;;;;;;;;;5066839;28;19931;-68
2022/12/06 07:55:24;;;;;;;;;;;;;;;;;;5069062;28;20042;-67
2022/12/06 07:57:49;;;;;;;;;;;;;;;;;;5067302;28;19921;-68
2022/12/06 08:00:15;;;;;;;;;;;;;;;;;;5066492;28;19920;-67
2022/12/06 08:02:41;;;;;;;;;;;;;;;;;;5077222;28;19921;-68
2022/12/06 08:05:07;;;;;;;;;;;;;;;;;;5069313;28;19926;-67
2022/12/06 08:07:33;;;;;;;;;;;;;;;;;;5067619;28;19978;-68
2022/12/06 08:09:59;;;;;;;;;;;;;;;;;;5069158;28;19928;-68
2022/12/06 08:12:25;;;;;;;;;;;;;;;;;;5067144;28;19963;-68
2022/12/06 08:14:51;;;;;;;;;;;;;;;;;;5066571;28;20739;-68
2022/12/06 08:17:17;;;;;;;;;;;;;;;;;;5066268;28;19920;-68
2022/12/06 08:19:43;;;;;;;;;;;;;;;;;;5066464;28;19927;-68
2022/12/06 08:22:10;;;;;;;;;;;;;;;;;;5063478;28;19924;-68
2022/12/06 08:24:36;;;;;;;;;;;;;;;;;;5065625;28;20448;-68
2022/12/06 08:27:02;;;;;;;;;;;;;;;;;;5067343;28;19924;-68
2022/12/06 08:29:28;;;;;;;;;;;;;;;;;;5067282;28;19928;-68
2022/12/06 08:31:54;;;;;;;;;;;;;;;;;;5067537;28;19959;-67
2022/12/06 08:34:20;;;;;;;;;;;;;;;;;;5068162;28;19985;-68
2022/12/06 08:36:46;;;;;;;;;;;;;;;;;;5067195;28;19932;-68
2022/12/06 08:39:12;;;;;;;;;;;;;;;;;;5078236;28;19943;-68
2022/12/06 08:44:22;;;;;;;;;;;;;;;;;;5065537;28;20333;-68
2022/12/06 08:46:48;;;;;;;;;;;;;;;;;;5067867;28;19920;-67
2022/12/06 08:49:14;;;;;;;;;;;;;;;;;;5065588;28;20107;-67
2022/12/06 08:51:40;;;;;;;;;;;;;;;;;;5067884;28;19971;-67
2022/12/06 08:54:06;;;;;;;;;;;;;;;;;;5065953;28;19975;-67
2022/12/06 08:56:32;;;;;;;;;;;;;;;;;;5065594;28;20022;-67
2022/12/06 08:58:58;;;;;;;;;;;;;;;;;;5067207;28;20395;-67
2022/12/06 09:01:23;;;;;;;;;;;;;;;;;;5066530;28;19924;-67
2022/12/06 09:03:49;;;;;;;;;;;;;;;;;;5065012;28;19928;-67
2022/12/06 09:06:15;;;;;;;;;;;;;;;;;;5066666;28;20393;-67
2022/12/06 09:08:41;;;;;;;;;;;;;;;;;;5066644;28;19920;-67
2022/12/06 09:11:07;;;;;;;;;;;;;;;;;;5067548;28;19943;-68
2022/12/06 09:13:33;;;;;;;;;;;;;;;;;;5065190;28;20410;-68
2022/12/06 09:16:00;;;;;;;;;;;;;;;;;;5065601;28;19931;-68
2022/12/06 09:18:26;;;;;;;;;;;;;;;;;;5064755;28;19924;-68
2022/12/06 09:20:52;;;;;;;;;;;;;;;;;;5066829;28;19927;-68
2022/12/06 09:23:18;;;;;;;;;;;;;;;;;;5063104;28;19920;-68
2022/12/06 09:25:44;;;;;;;;;;;;;;;;;;5064883;28;19920;-68
2022/12/06 09:28:09;;;;;;;;;;;;;;;;;;5066714;28;19921;-68
2022/12/06 09:30:35;;;;;;;;;;;;;;;;;;5075220;28;20033;-68
2022/12/06 09:33:01;;;;;;;;;;;;;;;;;;5065504;28;19920;-67
2022/12/06 09:35:27;;;;;;;;;;;;;;;;;;5066031;28;20290;-67
2022/12/06 09:37:53;;;;;;;;;;;;;;;;;;5063631;28;19928;-67
2022/12/06 09:40:19;;;;;;;;;;;;;;;;;;5061095;28;19920;-67
2022/12/06 09:42:45;;;;;;;;;;;;;;;;;;5068465;28;19924;-67
2022/12/06 09:45:11;;;;;;;;;;;;;;;;;;5066712;28;19976;-67
2022/12/06 09:47:37;;;;;;;;;;;;;;;;;;5066413;28;19924;-67
2022/12/06 09:50:04;;;;;;;;;;;;;;;;;;5061023;28;19924;-67
2022/12/06 09:52:39;;;;;;;0.80;0.80;;;;;;;;;;5054197;28;20515;-67
2022/12/06 09:55:23;;;;;;;1.90;0.90;;;;;;;;;;5060976;28;20613;-67
2022/12/06 09:57:49;;;;;;;;;;;;;;;;;;5069574;28;20453;-67
2022/12/06 10:00:19;;;;;;;0.60;0.60;;;;;;;;;;5088533;28;20303;-67
2022/12/06 10:02:52;;;;;;;0.70;0.60;;;;;;;;;;5058213;28;20403;-67
2022/12/06 10:05:18;;;;;;;0.80;0.70;;;;;;;;;;5063276;28;20047;-68
2022/12/06 10:07:44;;;;;;;;;;;;;;;;;;5063445;28;20563;-67
2022/12/06 10:10:10;;;;;;;;;;;;;;;;;;5064622;28;19924;-65
2022/12/06 10:12:36;;;;;;;;;;;;;;;;;;5060796;28;19929;-68
2022/12/06 10:15:02;;;;;;;;;;;;;;;;;;5067903;28;19968;-68
2022/12/06 10:17:28;;;;;;;;;;;;;;;;;;5075373;28;19924;-68
2022/12/06 10:20:03;;;;;;;1.10;0.50;;;;;;;;;;5093912;28;19971;-68
2022/12/06 10:22:49;;;;;;;0.73;0.70;;;;;;;;;;5070414;28;20551;-68
2022/12/06 10:25:26;;;;;;;1.60;0.68;;;;;;;;;;5052784;28;20055;-68
2022/12/06 10:27:59;;;;;;;1.10;1.00;;;;;;;;;;5085476;28;20167;-68
2022/12/06 10:30:25;;;;;;;;;;;;;;;;;;5086509;28;20008;-68
2022/12/06 10:32:51;;;;;;;;;;;;;;;;;;5053516;28;20011;-68
2022/12/06 10:35:17;;;;;;;;;;;;;;;;;;5088698;28;19921;-68
2022/12/06 10:37:43;;;;;;;;;;;;;;;;;;5054611;28;19921;-68
2022/12/06 10:40:09;;;;;;;;;;;;;;;;;;5096357;28;20291;-67
2022/12/06 10:42:34;;;;;;;;;;;;;;;;;;5095049;28;19921;-67
2022/12/06 10:45:00;;;;;;;;;;;;;;;;;;5100043;28;19924;-68
2022/12/06 10:47:26;;;;;;;;;;;;;;;;;;5067075;28;20389;-68
2022/12/06 10:49:52;;;;;;;;;;;;;;;;;;5094159;28;19954;-68
2022/12/06 10:52:18;;;;;;;;;;;;;;;;;;5097332;28;19920;-68
2022/12/06 10:54:44;;;;;;;;;;;;;;;;;;5069909;28;19920;-68
2022/12/06 10:57:10;;;;;;;;;;;;;;;;;;5108603;27;20379;-67
2022/12/06 10:59:38;;;;;;;2.05;1.08;;;;;;;;;;5079686;28;20216;-67
2022/12/06 11:02:34;;;;;;;1.33;1.15;;;;;;;;;;5113392;28;20044;-68
2022/12/06 11:05:03;;;;;;;0.90;0.85;;;;;;;;;;5071914;28;20058;-68
2022/12/06 11:07:41;;;;;;;2.40;1.10;;;;;;;;;;5080308;28;20790;-67
2022/12/06 11:10:27;;;;;;;0.95;0.80;;;;;;;;;;5079742;28;20131;-67
2022/12/06 11:12:56;;;;;;;0.80;0.80;;;;;;;;;;5081632;28;20048;-67
2022/12/06 11:15:24;;;;;;;1.02;0.82;;;;;;;;;;5080663;28;20056;-67
2022/12/06 11:17:55;;;;;;;1.10;1.00;;;;;;;;;;5113023;28;20047;-67
2022/12/06 11:20:24;;;;;;;0.75;0.75;;;;;;;;;;5081132;28;20533;-67
2022/12/06 11:23:13;;;;;;;0.95;0.80;;;;;;;;;;5079068;28;20123;-67
2022/12/06 11:25:59;;;;;;;1.27;1.17;;;;;;;;;;5071999;28;20052;-68
2022/12/06 11:28:25;;;;;;;2.25;1.27;;;;;;;;;;5096681;27;20362;-67
2022/12/06 11:30:52;;;;;;;1.20;1.10;;;;;;;;;;5087050;28;20076;-68
2022/12/06 11:33:20;;;;;;;0.93;0.82;;;;;;;;;;5118001;27;20041;-68
2022/12/06 11:35:46;;;;;;;1.58;1.17;;;;;;;;;;5077447;28;20041;-68
2022/12/06 11:38:14;;;;;;;1.45;1.08;;;;;;;;;;5110950;27;20124;-68
2022/12/06 11:40:45;;;;;;;1.58;1.10;;;;;;;;;;5079796;28;20139;-68
2022/12/06 11:43:19;;;;;;;1.25;1.15;;;;;;;;;;5112214;28;20048;-68
2022/12/06 11:45:45;;;;;;;3.03;0.90;;;;;;;;;;5111397;28;20045;-68
2022/12/06 11:48:16;;;;;;;1.02;0.93;;;;;;;;;;5114387;28;20423;-67
2022/12/06 11:50:43;;;;;;;3.40;1.00;;;;;;;;;;5078214;28;20052;-63
2022/12/06 11:53:19;;;;;;;1.05;0.90;;;;;;;;;;5076258;28;20128;-68
2022/12/06 11:55:47;;;;;;;2.05;1.17;;;;;;;;;;5110308;27;20047;-67
2022/12/06 11:58:16;;;;;;;1.00;0.95;;;;;;;;;;5082000;28;20399;-67
2022/12/06 12:00:56;;;;;;;1.48;1.10;;;;;;;;;;5068685;28;20095;-67
2022/12/06 12:03:27;;;;;;;1.42;0.90;;;;;;;;;;5063446;28;20045;-67
2022/12/06 12:06:06;;;;;;;1.23;1.13;;;;;;;;;;5071002;28;20403;-67
2022/12/06 12:08:32;;;;;;;1.92;0.90;;;;;;;;;;5071221;28;20050;-67
2022/12/06 12:10:59;;;;;;;1.67;0.88;;;;;;;;;;5080818;28;20072;-67
2022/12/06 12:13:43;;;;;;;0.73;0.60;;;;;;;;;;5094645;28;20045;-67
2022/12/06 12:16:29;;;;;;;1.05;0.65;;;;;;;;;;5070103;28;20041;-67
2022/12/06 12:19:16;;;;;;;1.27;1.08;;;;;;;;;;5098217;28;20411;-67
2022/12/06 12:21:42;;;;;;;0.85;0.73;;;;;;;;;;5060230;28;20052;-67
2022/12/06 12:24:28;;;;;;;0.93;0.93;;;;;;;;;;5082680;28;20052;-67
2022/12/06 12:26:54;;;;;;;1.83;1.25;;;;;;;;;;5107010;27;20044;-67
2022/12/06 12:29:21;;;;;;;2.58;1.38;;;;;;;;;;5072335;28;20048;-67
2022/12/06 12:31:52;;;;;;;2.35;1.20;;;;;;;;;;5106179;28;20407;-67
2022/12/06 12:34:20;;;;;;;1.75;1.40;;;;;;;;;;5072952;28;20448;-67
2022/12/06 12:36:47;;;;;;;1.50;1.40;;;;;;;;;;5072864;28;20048;-67
2022/12/06 12:39:23;;;;;;;1.77;0.93;;;;;;;;;;5106758;28;20134;-66
2022/12/06 12:41:49;;;;;;;1.30;1.00;;;;;;;;;;5073987;28;20051;-66
2022/12/06 12:44:16;;;;;;;1.15;1.05;;;;;;;;;;5072906;28;20051;-66
2022/12/06 12:46:50;;;;;;;1.30;1.15;;;;;;;;;;5068242;28;20086;-66
2022/12/06 12:49:27;;;;;;;0.85;0.80;;;;;;;;;;5106703;28;20134;-66
2022/12/06 12:51:53;;;;;;;0.75;0.75;;;;;;;;;;5074978;28;20068;-66
2022/12/06 12:54:22;;;;;;;1.50;0.90;;;;;;;;;;5074116;28;20515;-66
2022/12/06 12:56:48;;;;;;;1.65;1.08;;;;;;;;;;5100995;28;20100;-66
2022/12/06 12:59:19;;;;;;;1.92;1.13;;;;;;;;;;5077712;28;20324;-66
2022/12/06 13:01:47;;;;;;;1.02;0.77;;;;;;;;;;5103598;28;20426;-65
2022/12/06 13:04:22;;;;;;;0.93;0.80;;;;;;;;;;5071269;28;20037;-65
2022/12/06 13:06:57;;;;;;;2.88;1.05;;;;;;;;;;5071528;28;20040;-65
2022/12/06 13:09:26;;;;;;;1.08;0.90;;;;;;;;;;5073275;28;20575;-67
2022/12/06 13:11:56;;;;;;;1.05;0.93;;;;;;;;;;5073331;28;22198;-67
2022/12/06 13:14:23;;;;;;;2.42;0.90;;;;;;;;;;5101013;28;20052;-67
2022/12/06 13:16:51;;;;;;;2.15;0.88;;;;;;;;;;5072093;28;20443;-67
2022/12/06 13:19:18;;;;;;;2.30;0.95;;;;;;;;;;5075577;28;20045;-68
2022/12/06 13:21:44;;;;;;;1.20;1.08;;;;;;;;;;5073571;28;20048;-67
2022/12/06 13:24:10;;;;;;;1.25;1.10;;;;;;;;;;5085666;28;20380;-67
2022/12/06 13:26:42;;;;;;;1.73;0.90;;;;;;;;;;5073953;28;20051;-67
2022/12/06 13:29:22;;;;;;;2.55;0.77;;;;;;;;;;5068587;28;20044;-68
2022/12/06 13:31:50;;;;;;;1.55;0.75;;;;;;;;;;5071860;28;20055;-67
2022/12/06 13:34:21;;;;;;;2.15;1.60;;;;;;;;;;5073518;28;20400;-68
2022/12/06 13:36:51;;;;;;;0.95;0.85;;;;;;;;;;5110088;27;20136;-67
2022/12/06 13:39:32;;;;;;;0.50;0.43;;;;;;;;;;5072838;28;20055;-67
2022/12/06 13:42:18;;;;;;;2.70;0.80;;;;;;;;;;5072663;28;20044;-67
2022/12/06 13:44:47;;;;;;;1.40;1.00;;;;;;;;;;5071613;28;20072;-67
2022/12/06 13:47:28;;;;;;;2.30;1.10;;;;;;;;;;5075775;28;20515;-67
2022/12/06 13:49:58;;;;;;;1.70;0.80;;;;;;;;;;5065387;28;20136;-67
2022/12/06 13:52:42;;;;;;;1.23;0.82;;;;;;;;;;5067033;28;20040;-67
2022/12/06 13:55:23;;;;;;;1.00;0.90;;;;;;;;;;5065066;28;20047;-67
2022/12/06 13:57:56;;;;;;;1.95;0.95;;;;;;;;;;5066551;28;20095;-67
2022/12/06 14:00:31;;;;;;;1.27;0.73;;;;;;;;;;5074372;28;20056;-67
2022/12/06 14:03:03;;;;;;;2.60;0.80;;;;;;;;;;5073769;28;20052;-67
2022/12/06 14:05:48;;;;;;;0.80;0.60;;;;;;;;;;5069595;28;20045;-67
2022/12/06 14:08:14;;;;;;;1.27;0.70;;;;;;;;;;5068047;28;20063;-67
2022/12/06 14:10:40;;;;;;;2.33;0.90;;;;;;;;;;5106653;28;20052;-67
2022/12/06 14:13:06;;;;;;;0.73;0.73;;;;;;;;;;5080326;28;20118;-67
2022/12/06 14:15:37;;;;;;;1.40;0.90;;;;;;;;;;5089909;28;20086;-67
2022/12/06 14:18:03;;;;;;;2.10;1.02;;;;;;;;;;5059008;28;20044;-67
2022/12/06 14:20:30;;;;;;;1.13;0.90;;;;;;;;;;5074784;28;20058;-67
2022/12/06 14:22:56;;;;;;;1.98;1.00;;;;;;;;;;5098601;28;20146;-67
2022/12/06 14:25:24;;;;;;;0.50;0.50;;;;;;;;;;5089720;28;20487;-67
2022/12/06 14:27:51;;;;;;;0.73;0.52;;;;;;;;;;5103521;28;20049;-67
2022/12/06 14:30:17;;;;;;;1.08;0.80;;;;;;;;;;5070901;28;20084;-67
2022/12/06 14:32:43;;;;;;;2.40;1.25;;;;;;;;;;5070796;28;20044;-67
2022/12/06 14:35:12;;;;;;;1.42;0.85;;;;;;;;;;5071835;28;20400;-67
2022/12/06 14:37:38;;;;;;;1.83;0.70;;;;;;;;;;5088182;28;20068;-67
2022/12/06 14:40:20;;;;;;;5.55;1.33;;;;;;;;;;5106302;28;20573;-67
2022/12/06 14:43:02;;;;;;;2.37;0.93;;;;;;;;;;5103570;28;20226;-67
2022/12/06 14:45:29;;;;;;;1.20;1.05;;;;;;;;;;5071512;28;20045;-67
2022/12/06 14:47:56;;;;;;;2.55;1.40;;;;;;;;;;5070487;28;20033;-66
2022/12/06 14:50:39;;;;;;;2.45;0.90;;;;;;;;;;5072470;28;20048;-67
2022/12/06 14:53:07;;;;;;;0.63;0.63;;;;;;;;;;5106826;28;20048;-67
2022/12/06 14:55:35;;;;;;;1.65;0.85;;;;;;;;;;5103363;28;20523;-67
2022/12/06 14:58:14;;;;;;;1.08;0.65;;;;;;;;;;5107023;28;20194;-67
2022/12/06 15:00:48;;;;;;;0.73;0.65;;;;;;;;;;5072138;28;20110;-67
2022/12/06 15:03:17;;;;;;;0.57;0.57;;;;;;;;;;5094957;28;20471;-67
2022/12/06 15:05:44;;;;;;;1.98;1.20;;;;;;;;;;5068003;28;20044;-69
2022/12/06 15:08:25;;;;;;;1.08;0.60;;;;;;;;;;5102905;28;20586;-66
2022/12/06 15:10:54;;;;;;;0.90;0.38;;;;;;;;;;5069189;28;20040;-67
2022/12/06 15:13:21;;;;;;;0.40;0.30;;;;;;;;;;5071090;28;20411;-66
2022/12/06 15:15:49;;;;;;;0.50;0.50;;;;;;;;;;5070949;28;20056;-66
2022/12/06 15:18:23;;;;;;;0.20;0.20;;;;;;;;;;5086313;28;20045;-67
2022/12/06 15:20:49;;;;;;;0.30;0.30;;;;;;;;;;5068305;28;20059;-67
2022/12/06 15:23:36;;;;;;;0.30;0.30;;;;;;;;;;5058651;28;20596;-66
2022/12/06 15:26:03;;;;;;;0.40;0.17;;;;;;;;;;5073723;28;20055;-66
2022/12/06 15:28:29;;;;;;;0.32;0.30;;;;;;;;;;5105575;28;20049;-66
2022/12/06 15:30:55;;;;;;;0.50;0.40;;;;;;;;;;5097299;28;20504;-67
2022/12/06 15:33:22;;;;;;;0.50;0.50;;;;;;;;;;5072156;28;20032;-67
2022/12/06 15:35:48;;;;;;;0.60;0.40;;;;;;;;;;5080346;28;20048;-66
2022/12/06 15:38:15;;;;;;;0.38;0.32;;;;;;;;;;5064798;28;20045;-66
2022/12/06 15:40:42;;;;;;;1.05;0.38;;;;;;;;;;5067156;28;20094;-66
2022/12/06 15:43:28;;;;;;;0.20;0.20;;;;;;;;;;5071578;28;20044;-66